Decoded Metar for KLRD (LAREDO in TX, USA) (IATA:LRD) | Meteo·Mobile Aviation Weather
aviador You're here:

KLRD Decoded Metar

LAREDO in TX, USA
Report Time2018-12-16 08:56:00
UTC Time2018-12-16 10:02:09
Flight Rules vfr VFR
WindCalm
Visibility9999 m
Phenomena:N/A
Clouds:N/A
Expected CloudBase > 2,800 ft AGL from Temp-Dew spread
CeilingNone
Temp06°C (ISA -8)
Dew Point-1°C (61% RH)
AAT3.9°C
QNH1025 hPa
Density Alt-781 ft
Elevation509 ft
Report Wrong Elevation
Raw Report
KLRD 160856Z AUTO 00000KT 9SM CLR 06/M01 A3027 RMK AO2 SLP267
T00611006 56005=

Extra information for KLRD:More info

Metar Taf Metar & Taf Last 4 Metars F.Rules Stats Wind Profile Meteogram Temp Stats Airport Information Weather charts Add Link Nearby VenuesMetar ALERT Operation Metar Decoded Social comments

AIRNAV info for KLRD